createdAt,value
2018-06-01T00:00:25.621Z,1.63
2018-06-01T00:02:53.119Z,2.00
2018-06-01T00:05:20.634Z,3.43
2018-06-01T00:07:48.123Z,4.50
2018-06-01T00:10:15.639Z,3.40
2018-06-01T00:12:43.902Z,3.20
2018-06-01T00:15:11.420Z,2.70
2018-06-01T00:17:39.673Z,3.00
2018-06-01T00:20:07.190Z,2.87
2018-06-01T00:22:34.684Z,2.73
2018-06-01T00:25:03.684Z,2.73
2018-06-01T00:27:31.190Z,2.40
2018-06-01T00:29:59.465Z,2.83
2018-06-01T00:32:26.954Z,2.70
2018-06-01T00:34:54.555Z,3.20
2018-06-01T00:37:22.816Z,3.03
2018-06-01T00:39:50.473Z,3.23
2018-06-01T00:42:17.962Z,3.43
2018-06-01T00:44:45.480Z,4.03
2018-06-01T00:47:12.973Z,3.90
2018-06-01T00:49:40.514Z,3.70
2018-06-01T00:52:08.004Z,3.57
2018-06-01T00:54:47.509Z,4.40
2018-06-01T00:57:14.989Z,3.93
2018-06-01T00:59:42.475Z,3.70
2018-06-01T01:02:11.785Z,3.70
2018-06-01T01:04:39.277Z,4.00
2018-06-01T01:07:07.596Z,4.07
2018-06-01T01:09:35.847Z,3.77
2018-06-01T01:12:03.365Z,4.03
2018-06-01T01:14:30.855Z,4.00
2018-06-01T01:16:58.379Z,4.10
2018-06-01T01:19:25.893Z,4.10
2018-06-01T01:21:53.399Z,4.70
2018-06-01T01:24:20.891Z,4.70
2018-06-01T01:26:48.403Z,4.40
2018-06-01T01:29:15.890Z,4.20
2018-06-01T01:31:43.433Z,3.70
2018-06-01T01:34:10.933Z,3.87
2018-06-01T01:36:39.210Z,3.70
2018-06-01T01:39:06.710Z,3.47
2018-06-01T01:41:34.991Z,3.90
2018-06-01T01:44:02.482Z,3.10
2018-06-01T01:46:30.533Z,3.70
2018-06-01T01:48:58.047Z,4.13
2018-06-01T01:51:25.532Z,3.50
2018-06-01T01:53:53.039Z,3.13
2018-06-01T01:56:20.614Z,2.47
2018-06-01T01:58:48.129Z,3.30
2018-06-01T02:01:16.391Z,3.50
2018-06-01T02:03:43.911Z,3.07
2018-06-01T02:06:11.418Z,3.03
2018-06-01T02:08:38.927Z,3.20
2018-06-01T02:11:06.442Z,3.07
2018-06-01T02:13:34.719Z,2.80
2018-06-01T02:16:02.222Z,3.30
2018-06-01T02:18:29.739Z,2.57
2018-06-01T02:20:57.227Z,2.40
2018-06-01T02:23:24.727Z,2.40
2018-06-01T02:25:52.238Z,2.43
2018-06-01T02:28:19.805Z,3.90
2018-06-01T02:30:47.316Z,3.83
2018-06-01T02:33:14.808Z,4.27
2018-06-01T02:35:43.103Z,4.87
2018-06-01T02:38:10.586Z,4.20
2018-06-01T02:40:38.102Z,4.60
2018-06-01T02:43:05.655Z,4.00
2018-06-01T02:45:33.965Z,4.03
2018-06-01T02:48:02.218Z,5.17
2018-06-01T02:50:29.738Z,4.33
2018-06-01T02:52:57.219Z,4.30
2018-06-01T02:55:24.746Z,4.50
2018-06-01T02:57:52.247Z,4.13
2018-06-01T03:00:19.786Z,4.93
2018-06-01T03:02:48.049Z,5.17
2018-06-01T03:05:15.555Z,5.50
2018-06-01T03:07:43.079Z,4.77
2018-06-01T03:10:10.579Z,5.20
2018-06-01T03:12:38.095Z,5.30
2018-06-01T03:15:05.577Z,5.07
2018-06-01T03:17:33.095Z,5.20
2018-06-01T03:20:01.351Z,4.93
2018-06-01T03:22:28.870Z,4.80
2018-06-01T03:24:57.116Z,5.03
2018-06-01T03:27:24.630Z,4.57
2018-06-01T03:29:52.252Z,4.57
2018-06-01T03:32:20.537Z,4.97
2018-06-01T03:34:48.786Z,4.73
2018-06-01T03:37:16.302Z,4.83
2018-06-01T03:39:44.610Z,4.40
2018-06-01T03:42:12.145Z,4.40
2018-06-01T03:44:39.638Z,4.40
2018-06-01T03:47:07.131Z,4.70
2018-06-01T03:49:34.634Z,4.53
2018-06-01T03:52:02.885Z,3.97
2018-06-01T03:54:30.413Z,3.73
2018-06-01T03:56:58.737Z,4.00
2018-06-01T03:59:27.028Z,4.13
2018-06-01T04:01:54.515Z,4.03
2018-06-01T04:04:22.041Z,4.27
2018-06-01T04:06:49.549Z,4.43
2018-06-01T04:09:17.066Z,4.20
2018-06-01T04:11:44.566Z,3.97
2018-06-01T04:14:12.847Z,4.50
2018-06-01T04:16:40.435Z,4.33
2018-06-01T04:19:07.944Z,4.30
2018-06-01T04:21:35.435Z,4.30
2018-06-01T04:24:02.946Z,4.40
2018-06-01T04:26:31.170Z,4.50
2018-06-01T04:28:58.690Z,4.30
2018-06-01T04:31:26.957Z,4.83
2018-06-01T04:33:54.559Z,4.00
2018-06-01T04:36:22.131Z,4.63
2018-06-01T04:38:49.678Z,4.60
2018-06-01T04:41:17.211Z,4.30
2018-06-01T04:43:45.463Z,5.07
2018-06-01T04:46:13.013Z,4.90
2018-06-01T04:48:41.296Z,4.67
2018-06-01T04:51:08.813Z,4.20
2018-06-01T04:53:36.295Z,5.33
2018-06-01T04:56:03.850Z,3.27
2018-06-01T04:58:31.326Z,4.40
2018-06-01T05:00:58.841Z,4.60
2018-06-01T05:03:26.326Z,4.50
2018-06-01T05:05:53.839Z,4.37
2018-06-01T05:08:21.348Z,4.27
2018-06-01T05:10:48.870Z,3.60
2018-06-01T05:13:16.530Z,4.30
2018-06-01T05:15:44.875Z,5.30
2018-06-01T05:18:12.366Z,4.00
2018-06-01T05:20:39.890Z,4.97
2018-06-01T05:23:07.485Z,4.03
2018-06-01T05:25:35.069Z,4.00
2018-06-01T05:28:02.648Z,4.03
2018-06-01T05:30:30.133Z,4.93
2018-06-01T05:32:57.650Z,4.37
2018-06-01T05:35:25.183Z,4.50
2018-06-01T05:37:52.682Z,4.40
2018-06-01T05:40:20.174Z,4.70
2018-06-01T05:42:48.459Z,4.30
2018-06-01T05:45:15.945Z,4.43
2018-06-01T05:47:43.536Z,5.90
2018-06-01T05:50:11.019Z,4.93
2018-06-01T05:52:38.527Z,4.50
2018-06-01T05:55:06.042Z,4.20
2018-06-01T05:57:33.551Z,5.23
2018-06-01T06:00:01.089Z,5.03
2018-06-01T06:02:28.606Z,5.37
2018-06-01T06:04:56.087Z,5.17
2018-06-01T06:07:23.631Z,5.10
2018-06-01T06:09:51.901Z,4.83
2018-06-01T06:12:19.414Z,5.50
2018-06-01T06:14:47.696Z,5.13
2018-06-01T06:17:15.991Z,5.03
2018-06-01T06:19:43.526Z,4.87
2018-06-01T06:22:11.014Z,4.90
2018-06-01T06:24:38.532Z,5.03
2018-06-01T06:27:06.027Z,5.67
2018-06-01T06:29:33.545Z,6.03
2018-06-01T06:32:01.035Z,4.90
2018-06-01T06:34:28.541Z,5.50
2018-06-01T06:36:56.051Z,5.00
2018-06-01T06:39:23.575Z,5.27
2018-06-01T06:41:51.075Z,5.45
2018-06-01T06:44:18.566Z,5.10
2018-06-01T06:46:46.101Z,4.97
2018-06-01T06:49:14.346Z,5.23
2018-06-01T06:51:41.854Z,5.40
2018-06-01T06:54:09.422Z,5.00
2018-06-01T06:56:36.934Z,5.23
2018-06-01T06:59:04.650Z,4.97
2018-06-01T07:01:32.927Z,5.35
2018-06-01T07:04:00.420Z,4.40
2018-06-01T07:06:27.927Z,4.20
2018-06-01T07:08:55.421Z,4.68
2018-06-01T07:11:22.935Z,5.03
2018-06-01T07:13:50.493Z,5.60
2018-06-01T07:16:18.032Z,4.37
2018-06-01T07:18:45.535Z,5.20
2018-06-01T07:21:13.794Z,5.85
2018-06-01T07:23:41.321Z,4.78
2018-06-01T07:26:09.572Z,5.15
2018-06-01T07:28:37.074Z,6.07
2018-06-01T07:31:04.570Z,4.55
2018-06-01T07:33:32.400Z,4.97
2018-06-01T07:35:59.895Z,4.72
2018-06-01T07:38:27.419Z,4.57
2018-06-01T07:40:54.915Z,4.25
2018-06-01T07:43:23.207Z,4.45
2018-06-01T07:45:50.707Z,5.05
2018-06-01T07:48:19.001Z,5.03
2018-06-01T07:50:47.270Z,4.53
2018-06-01T07:53:14.765Z,4.60
2018-06-01T07:55:43.077Z,5.25
2018-06-01T07:58:10.565Z,4.82
2018-06-01T08:00:38.084Z,4.97
2018-06-01T08:03:05.573Z,4.70
2018-06-01T08:05:33.090Z,4.87
2018-06-01T08:08:00.698Z,4.62
2018-06-01T08:10:28.230Z,4.62
2018-06-01T08:12:55.718Z,3.40
2018-06-01T08:15:23.249Z,4.05
2018-06-01T08:17:51.522Z,4.40
2018-06-01T08:20:19.211Z,4.70
2018-06-01T08:22:46.662Z,4.22
2018-06-01T08:25:14.174Z,4.12
2018-06-01T08:27:41.680Z,4.90
2018-06-01T08:30:09.271Z,4.35
2018-06-01T08:32:37.559Z,3.87
2018-06-01T08:35:05.038Z,4.22
2018-06-01T08:37:32.562Z,4.28
2018-06-01T08:40:00.062Z,4.78
2018-06-01T08:42:27.609Z,4.07
2018-06-01T08:44:55.104Z,4.30
2018-06-01T08:47:23.401Z,4.40
2018-06-01T08:49:51.665Z,4.10
2018-06-01T08:52:19.183Z,4.95
2018-06-01T08:54:47.437Z,4.30
2018-06-01T08:57:14.989Z,4.22
2018-06-01T08:59:42.497Z,3.37
2018-06-01T09:02:10.010Z,3.90
2018-06-01T09:04:37.562Z,3.83
2018-06-01T09:07:05.081Z,4.07
2018-06-01T09:09:32.695Z,3.83
2018-06-01T09:12:00.211Z,4.18
2018-06-01T09:14:27.694Z,3.65
2018-06-01T09:16:55.219Z,3.60
2018-06-01T09:19:22.803Z,3.80
2018-06-01T09:21:50.388Z,3.65
2018-06-01T09:24:18.005Z,3.55
2018-06-01T09:26:45.649Z,3.75
2018-06-01T09:29:14.200Z,3.72
2018-06-01T09:31:41.740Z,3.40
2018-06-01T09:34:09.231Z,3.45
2018-06-01T09:36:36.831Z,4.00
2018-06-01T09:39:06.170Z,3.72
2018-06-01T09:41:34.427Z,3.83
2018-06-01T09:44:01.949Z,3.95
2018-06-01T09:46:30.756Z,4.15
2018-06-01T09:48:58.274Z,4.30
2018-06-01T09:51:25.766Z,3.80
2018-06-01T09:53:53.289Z,4.30
2018-06-01T09:56:21.541Z,4.37
2018-06-01T09:58:49.082Z,3.70
2018-06-01T10:01:22.112Z,3.67
2018-06-01T10:03:50.407Z,3.45
2018-06-01T10:06:17.983Z,3.50
2018-06-01T10:08:47.007Z,3.17
2018-06-01T10:11:14.508Z,3.80
2018-06-01T10:13:42.823Z,3.45
2018-06-01T10:16:10.306Z,3.65
2018-06-01T10:18:37.960Z,3.33
2018-06-01T10:21:05.458Z,3.92
2018-06-01T10:23:34.070Z,3.67
2018-06-01T10:26:01.581Z,3.22
2018-06-01T10:28:29.099Z,2.95
2018-06-01T10:30:56.706Z,3.33
2018-06-01T10:33:25.017Z,3.15
2018-06-01T10:35:53.326Z,3.28
2018-06-01T10:38:21.614Z,3.22
2018-06-01T10:40:49.905Z,3.60
2018-06-01T10:43:17.430Z,3.30
2018-06-01T10:45:44.926Z,3.33
2018-06-01T10:48:12.452Z,3.95
2018-06-01T10:50:39.943Z,3.30
2018-06-01T10:53:07.531Z,3.78
2018-06-01T10:55:35.035Z,3.00
2018-06-01T10:58:02.555Z,3.00
2018-06-01T11:00:30.054Z,3.40
2018-06-01T11:02:57.612Z,2.75
2018-06-01T11:05:25.128Z,2.58
2018-06-01T11:07:53.421Z,2.70
2018-06-01T11:10:20.965Z,2.92
2018-06-01T11:12:48.474Z,2.58
2018-06-01T11:15:16.124Z,2.60
2018-06-01T11:17:43.624Z,2.47
2018-06-01T11:20:11.192Z,2.05
2018-06-01T11:22:38.690Z,2.08
2018-06-01T11:25:06.219Z,1.80
2018-06-01T11:27:33.717Z,2.40
2018-06-01T11:30:02.008Z,3.00
2018-06-01T11:32:30.287Z,2.37
2018-06-01T11:34:57.826Z,3.05
2018-06-01T11:37:26.127Z,3.15
2018-06-01T11:39:54.422Z,2.80
2018-06-01T11:42:22.733Z,2.70
2018-06-01T11:44:50.271Z,2.62
2018-06-01T11:47:17.763Z,2.80
2018-06-01T11:49:45.293Z,2.62
2018-06-01T11:52:12.786Z,2.28
2018-06-01T11:54:40.333Z,2.50
2018-06-01T11:57:08.623Z,2.25
2018-06-01T11:59:36.953Z,2.35
2018-06-01T12:02:05.253Z,2.20
2018-06-01T12:04:33.567Z,1.85
2018-06-01T12:07:01.096Z,2.20
2018-06-01T12:09:28.646Z,2.25
2018-06-01T12:11:56.146Z,2.37
2018-06-01T12:14:23.675Z,1.98
2018-06-01T12:16:51.946Z,2.30
2018-06-01T12:19:20.414Z,2.45
2018-06-01T12:21:47.921Z,2.60
2018-06-01T12:24:16.186Z,2.03
2018-06-01T12:26:43.688Z,2.05
2018-06-01T12:29:11.227Z,2.12
2018-06-01T12:31:38.749Z,2.17
2018-06-01T12:34:06.308Z,2.03
2018-06-01T12:36:34.771Z,1.98
2018-06-01T12:39:02.287Z,1.92
2018-06-01T12:41:30.582Z,2.08
2018-06-01T12:43:58.083Z,2.83
2018-06-01T12:46:26.371Z,2.10
2018-06-01T12:48:54.080Z,3.00
2018-06-01T12:51:22.378Z,2.65
2018-06-01T12:53:50.637Z,2.80
2018-06-01T12:56:18.167Z,2.70
2018-06-01T12:58:45.654Z,2.83
2018-06-01T13:01:13.168Z,3.12
2018-06-01T13:03:40.717Z,2.80
2018-06-01T13:06:08.273Z,2.37
2018-06-01T13:08:35.801Z,2.80
2018-06-01T13:11:03.319Z,2.78
2018-06-01T13:13:30.848Z,3.03
2018-06-01T13:15:58.536Z,2.80
2018-06-01T13:18:26.242Z,2.65
2018-06-01T13:20:53.810Z,3.00
2018-06-01T13:23:22.111Z,2.78
2018-06-01T13:25:50.404Z,2.78
2018-06-01T13:28:18.692Z,3.17
2018-06-01T13:30:46.232Z,2.75
2018-06-01T13:33:13.801Z,3.08
2018-06-01T13:35:41.336Z,2.50
2018-06-01T13:38:08.851Z,2.62
2018-06-01T13:40:37.156Z,2.83
2018-06-01T13:43:04.687Z,2.17
2018-06-01T13:45:32.213Z,2.03
2018-06-01T13:47:59.731Z,1.77
2018-06-01T13:50:27.251Z,1.80
2018-06-01T13:52:54.752Z,1.50
2018-06-01T13:55:23.035Z,1.50
2018-06-01T13:57:50.564Z,1.50
2018-06-01T14:00:18.138Z,1.70
2018-06-01T14:02:45.683Z,1.30
2018-06-01T14:05:13.183Z,1.83
2018-06-01T14:07:41.483Z,1.90
2018-06-01T14:10:09.029Z,1.92
2018-06-01T14:12:36.646Z,1.90
2018-06-01T14:15:05.079Z,2.10
2018-06-01T14:17:33.387Z,2.05
2018-06-01T14:20:01.647Z,1.87
2018-06-01T14:22:29.177Z,1.80
2018-06-01T14:24:56.778Z,1.60
2018-06-01T14:27:24.299Z,1.50
2018-06-01T14:29:51.909Z,1.40
2018-06-01T14:32:20.212Z,1.40
2018-06-01T14:34:48.493Z,1.83
2018-06-01T14:37:16.113Z,1.52
2018-06-01T14:39:43.787Z,1.50
2018-06-01T14:42:11.333Z,1.92
2018-06-01T14:44:38.907Z,1.73
2018-06-01T14:47:06.456Z,1.73
2018-06-01T14:49:33.982Z,1.60
2018-06-01T14:52:01.534Z,1.70
2018-06-01T14:54:29.053Z,1.92
2018-06-01T14:56:56.638Z,1.77
2018-06-01T14:59:24.178Z,1.85
2018-06-01T15:01:51.760Z,2.08
2018-06-01T15:04:19.210Z,1.60
2018-06-01T15:06:46.737Z,1.83
2018-06-01T15:09:14.309Z,2.00
2018-06-01T15:11:41.823Z,1.87
2018-06-01T15:14:09.329Z,2.05
2018-06-01T15:16:36.858Z,2.05
2018-06-01T15:19:04.356Z,1.70
2018-06-01T15:21:31.900Z,2.15
2018-06-01T15:23:59.417Z,2.00
2018-06-01T15:26:27.164Z,1.77
2018-06-01T15:28:54.693Z,1.85
2018-06-01T15:34:20.647Z,1.35
2018-06-01T15:36:48.172Z,1.65
2018-06-01T15:39:16.026Z,1.30
2018-06-01T15:41:44.354Z,1.40
2018-06-01T15:44:12.739Z,1.30
2018-06-01T15:46:40.996Z,1.52
2018-06-01T15:49:08.514Z,1.90
2018-06-01T15:51:36.025Z,1.23
2018-06-01T15:54:04.298Z,1.30
2018-06-01T15:56:31.797Z,2.08
2018-06-01T15:59:00.133Z,2.40
2018-06-01T16:01:27.654Z,1.85
2018-06-01T16:03:55.171Z,1.60
2018-06-01T16:06:23.435Z,1.75
2018-06-01T16:08:51.018Z,1.80
2018-06-01T16:11:18.511Z,1.40
2018-06-01T16:13:46.019Z,1.67
2018-06-01T16:16:14.293Z,1.70
2018-06-01T16:18:41.806Z,2.15
2018-06-01T16:21:10.062Z,2.05
2018-06-01T16:23:37.607Z,2.15
2018-06-01T16:26:05.112Z,2.30
2018-06-01T16:28:32.649Z,2.55
2018-06-01T16:31:00.237Z,2.62
2018-06-01T16:33:27.761Z,2.40
2018-06-01T16:35:55.301Z,2.67
2018-06-01T16:38:22.850Z,2.28
2018-06-01T16:40:50.335Z,2.55
2018-06-01T16:43:17.877Z,2.50
2018-06-01T16:45:45.374Z,2.08
2018-06-01T16:48:12.905Z,2.30
2018-06-01T16:50:42.016Z,2.20
2018-06-01T16:53:09.642Z,1.90
2018-06-01T16:55:37.905Z,2.17
2018-06-01T16:58:05.432Z,1.55
2018-06-01T17:00:32.934Z,1.80
2018-06-01T17:03:00.447Z,1.90
2018-06-01T17:05:27.967Z,1.62
2018-06-01T17:07:56.298Z,1.77
2018-06-01T17:10:23.793Z,1.90
2018-06-01T17:12:51.304Z,2.22
2018-06-01T17:15:18.823Z,2.58
2018-06-01T17:17:47.075Z,2.70
2018-06-01T17:20:14.689Z,2.40
2018-06-01T17:22:42.291Z,2.40
2018-06-01T17:25:10.679Z,2.20
2018-06-01T17:27:38.174Z,2.65
2018-06-01T17:30:06.615Z,2.90
2018-06-01T17:32:34.589Z,2.83
2018-06-01T17:35:02.581Z,2.30
2018-06-01T17:37:30.687Z,2.92
2018-06-01T17:39:58.673Z,2.58
2018-06-01T17:42:26.772Z,2.90
2018-06-01T17:44:54.872Z,2.70
2018-06-01T17:47:22.417Z,2.50
2018-06-01T17:49:49.961Z,2.20
2018-06-01T17:52:17.454Z,2.42
2018-06-01T17:54:45.004Z,2.20
2018-06-01T17:57:13.273Z,2.10
2018-06-01T17:59:40.837Z,1.75
2018-06-01T18:02:08.437Z,1.50
2018-06-01T18:04:35.971Z,1.50
2018-06-01T18:07:03.557Z,1.58
2018-06-01T18:09:31.096Z,1.60
2018-06-01T18:11:58.599Z,1.62
2018-06-01T18:14:26.190Z,1.30
2018-06-01T18:16:54.451Z,1.95
2018-06-01T18:19:21.957Z,2.00
2018-06-01T18:21:49.464Z,1.90
2018-06-01T18:24:17.767Z,1.83
2018-06-01T18:26:45.261Z,1.70
2018-06-01T18:29:12.871Z,1.85
2018-06-01T18:31:40.418Z,2.05
2018-06-01T18:34:08.717Z,1.85
2018-06-01T18:36:37.006Z,1.67
2018-06-01T18:39:06.369Z,1.90
2018-06-01T18:41:33.931Z,2.10
2018-06-01T18:44:02.221Z,2.00
2018-06-01T18:46:31.103Z,1.60
2018-06-01T18:48:58.589Z,1.85
2018-06-01T18:51:26.103Z,2.20
2018-06-01T18:53:54.360Z,1.80
2018-06-01T18:56:21.875Z,2.40
2018-06-01T18:58:50.208Z,2.62
2018-06-01T19:01:17.746Z,2.30
2018-06-01T19:03:45.998Z,2.60
2018-06-01T19:06:13.522Z,2.55
2018-06-01T19:08:41.031Z,2.85
2018-06-01T19:11:08.550Z,2.42
2018-06-01T19:13:36.066Z,3.00
2018-06-01T19:16:03.582Z,2.67
2018-06-01T19:18:31.188Z,2.90
2018-06-01T19:20:58.730Z,2.80
2018-06-01T19:23:26.219Z,2.87
2018-06-01T19:25:53.834Z,2.62
2018-06-01T19:28:22.097Z,2.67
2018-06-01T19:30:49.613Z,2.30
2018-06-01T19:33:17.127Z,2.30
2018-06-01T19:35:44.639Z,2.75
2018-06-01T19:38:12.141Z,2.55
2018-06-01T19:40:39.712Z,2.80
2018-06-01T19:43:07.363Z,2.80
2018-06-01T19:45:34.882Z,2.47
2018-06-01T19:48:02.374Z,2.20
2018-06-01T19:50:29.891Z,2.33
2018-06-01T19:52:58.157Z,2.37
2018-06-01T19:55:25.671Z,2.37
2018-06-01T19:57:53.927Z,2.53
2018-06-01T20:00:21.438Z,2.12
2018-06-01T20:02:48.987Z,2.40
2018-06-01T20:05:16.738Z,2.50
2018-06-01T20:07:44.296Z,2.30
2018-06-01T20:10:11.873Z,2.50
2018-06-01T20:12:39.476Z,2.45
2018-06-01T20:15:07.759Z,2.12
2018-06-01T20:17:36.050Z,2.20
2018-06-01T20:20:03.655Z,2.33
2018-06-01T20:22:31.197Z,2.25
2018-06-01T20:24:58.730Z,2.40
2018-06-01T20:27:27.020Z,2.37
2018-06-01T20:29:54.559Z,2.35
2018-06-01T20:32:22.824Z,2.80
2018-06-01T20:34:51.081Z,2.33
2018-06-01T20:37:18.719Z,2.37
2018-06-01T20:39:47.007Z,2.40
2018-06-01T20:42:15.350Z,2.72
2018-06-01T20:44:42.870Z,2.70
2018-06-01T20:47:10.398Z,2.65
2018-06-01T20:49:37.901Z,2.80
2018-06-01T20:52:05.435Z,2.60
2018-06-01T20:54:32.941Z,2.78
2018-06-01T20:57:01.244Z,2.85
2018-06-01T20:59:29.503Z,2.50
2018-06-01T21:01:57.039Z,2.50
2018-06-01T21:04:24.532Z,2.80
2018-06-01T21:06:52.205Z,2.58
2018-06-01T21:09:20.459Z,2.80
2018-06-01T21:11:47.984Z,2.90
2018-06-01T21:14:16.245Z,2.97
2018-06-01T21:16:43.793Z,2.80
2018-06-01T21:19:11.302Z,3.25
2018-06-01T21:21:38.818Z,2.90
2018-06-01T21:24:06.342Z,2.60
2018-06-01T21:26:33.877Z,2.92
2018-06-01T21:29:01.363Z,3.20
2018-06-01T21:31:28.896Z,3.30
2018-06-01T21:33:56.398Z,3.20
2018-06-01T21:36:23.878Z,3.00
2018-06-01T21:38:51.394Z,2.67
2018-06-01T21:41:18.894Z,3.00
2018-06-01T21:43:47.238Z,2.90
2018-06-01T21:46:15.304Z,2.83
2018-06-01T21:48:42.997Z,3.10
2018-06-01T21:51:10.515Z,2.90
2018-06-01T21:53:38.064Z,3.27
2018-06-01T21:56:05.553Z,3.27
2018-06-01T21:58:33.115Z,2.83
2018-06-01T22:01:01.443Z,3.43
2018-06-01T22:03:28.979Z,3.20
2018-06-01T22:05:56.470Z,3.10
2018-06-01T22:08:24.055Z,2.83
2018-06-01T22:10:51.538Z,3.40
2018-06-01T22:13:19.054Z,2.97
2018-06-01T22:15:46.542Z,3.00
2018-06-01T22:18:14.084Z,3.27
2018-06-01T22:20:41.588Z,3.40
2018-06-01T22:23:09.907Z,3.73
2018-06-01T22:25:38.358Z,3.30
2018-06-01T22:28:05.876Z,4.00
2018-06-01T22:30:34.239Z,2.90
2018-06-01T22:33:01.878Z,3.23
2018-06-01T22:35:30.535Z,3.40
2018-06-01T22:37:58.045Z,3.67
2018-06-01T22:40:25.738Z,3.73
2018-06-01T22:42:53.315Z,3.65
2018-06-01T22:45:20.806Z,3.60
2018-06-01T22:47:48.343Z,3.30
2018-06-01T22:50:15.861Z,3.57
2018-06-01T22:52:43.395Z,3.40
2018-06-01T22:55:10.881Z,3.40
2018-06-01T22:57:38.398Z,3.37
2018-06-01T23:00:05.953Z,3.30
2018-06-01T23:02:33.470Z,3.20
2018-06-01T23:05:00.972Z,3.67
2018-06-01T23:07:28.458Z,3.70
2018-06-01T23:09:55.991Z,3.47
2018-06-01T23:12:23.524Z,3.30
2018-06-01T23:14:51.838Z,3.40
2018-06-01T23:17:20.097Z,3.78
2018-06-01T23:19:47.643Z,4.00
2018-06-01T23:22:15.924Z,3.07
2018-06-01T23:24:44.331Z,3.47
2018-06-01T23:27:12.616Z,3.33
2018-06-01T23:29:40.135Z,3.57
2018-06-01T23:32:07.624Z,3.67
2018-06-01T23:34:35.146Z,3.60
2018-06-01T23:37:02.774Z,3.20
2018-06-01T23:39:31.066Z,3.50
2018-06-01T23:41:59.376Z,3.50
2018-06-01T23:44:27.776Z,4.00
2018-06-01T23:46:56.047Z,3.53
2018-06-01T23:49:23.585Z,3.87
2018-06-01T23:51:51.085Z,3.40
2018-06-01T23:54:18.730Z,3.30
2018-06-01T23:56:46.995Z,3.30
2018-06-01T23:59:14.867Z,3.77
